Time;durP1;ratioP1;P1;durP2;ratioP2;P2;SDS_P1;SDS_P2;PMS_P1;PMS_P2;Temp;Humidity;BMP_temperature;BMP_pressure;BME280_temperature;BME280_humidity;BME280_pressure;Samples;Min_cycle;Max_cycle;Signal;HPM_P1;HPM_P2
2022/02/27 00:02:05;;;;;;;;;;;;;;;2.26;100.00;100932.96;1744255;82;21047;-58
2022/02/27 00:04:31;;;;;;;;;;;;;;;2.21;100.00;100937.55;1744449;81;20134;-59
2022/02/27 00:06:58;;;;;;;;;;;;;;;2.13;100.00;100934.96;1744469;82;20111;-59
2022/02/27 00:09:24;;;;;;;;;;;;;;;2.08;100.00;100930.68;1744617;81;20111;-58
2022/02/27 00:11:51;;;;;;;;;;;;;;;2.01;100.00;100929.77;1744811;82;20412;-58
2022/02/27 00:14:17;;;;;;;;;;;;;;;1.96;100.00;100932.17;1744533;81;20130;-59
2022/02/27 00:16:44;;;;;;;;;;;;;;;1.90;100.00;100932.92;1720570;82;20125;-59
2022/02/27 00:19:10;;;;;;;;;;;;;;;1.85;100.00;100933.98;1739472;81;20110;-61
2022/02/27 00:21:37;;;;;;;;;;;;;;;1.79;100.00;100932.05;1744612;82;20111;-59
2022/02/27 00:24:04;;;;;;;;;;;;;;;1.74;100.00;100931.25;1744377;81;20126;-59
2022/02/27 00:26:31;;;;;;;;;;;;;;;1.69;100.00;100928.31;1743501;82;20111;-58
2022/02/27 00:28:57;;;;;;;;;;;;;;;1.63;100.00;100934.39;1731292;81;20390;-59
2022/02/27 00:31:25;;;;;;;;;;;;;;;1.58;100.00;100931.45;1735537;82;20099;-59
2022/02/27 00:33:51;;;;;;;;;;;;;;;1.52;100.00;100933.54;1743927;81;20134;-59
2022/02/27 00:36:17;;;;;;;;;;;;;;;1.49;100.00;100933.38;1719979;82;20416;-59
2022/02/27 00:38:44;;;;;;;;;;;;;;;1.46;100.00;100933.74;1736003;81;20421;-59
2022/02/27 00:41:11;;;;;;;;;;;;;;;1.45;100.00;100934.75;1744430;82;20135;-59
2022/02/27 00:43:37;;;;;;;;;;;;;;;1.43;100.00;100934.12;1744815;81;20134;-58
2022/02/27 00:46:06;;;;;;;;;;;;;;;1.41;100.00;100929.96;1744092;82;20533;-59
2022/02/27 00:48:36;;;;;;;;;;;;;;;1.40;100.00;100933.66;1744678;81;20143;-59
2022/02/27 00:51:02;;;;;;;;;;;;;;;1.39;100.00;100934.66;1744739;82;20140;-59
2022/02/27 00:53:31;;;;;;;;;;;;;;;1.33;100.00;100931.38;1743923;81;20430;-59
2022/02/27 00:55:58;;;;;;;;;;;;;;;1.29;100.00;100926.05;1743336;82;20107;-59
2022/02/27 00:58:24;;;;;;;;;;;;;;;1.26;100.00;100929.94;1744423;81;20115;-60
2022/02/27 01:00:50;;;;;;;;;;;;;;;1.19;100.00;100925.48;1744653;82;20144;-59
2022/02/27 01:03:17;;;;;;;;;;;;;;;1.15;100.00;100923.67;1747671;81;20296;-59
2022/02/27 01:05:43;;;;;;;;;;;;;;;1.09;100.00;100931.61;1753298;82;20130;-58
2022/02/27 01:08:10;;;;;;;;;;;;;;;1.02;100.00;100922.13;1734936;80;20182;-59
2022/02/27 01:10:38;;;;;;;;;;;;;;;0.97;100.00;100928.02;1747256;82;20436;-59
2022/02/27 01:13:04;;;;;;;;;;;;;;;0.90;100.00;100925.73;1750971;80;20157;-60
2022/02/27 01:15:30;;;;;;;;;;;;;;;0.82;100.00;100924.95;1748165;81;20164;-59
2022/02/27 01:17:57;;;;;;;;;;;;;;;0.78;100.00;100920.99;1742397;80;20104;-59
2022/02/27 01:20:24;;;;;;;;;;;;;;;0.71;100.00;100922.19;1744302;81;20136;-59
2022/02/27 01:22:51;;;;;;;;;;;;;;;0.64;100.00;100919.09;1753213;80;20142;-59
2022/02/27 01:25:18;;;;;;;;;;;;;;;0.60;100.00;100929.83;1753287;82;20110;-59
2022/02/27 01:27:44;;;;;;;;;;;;;;;0.52;100.00;100925.36;1752932;80;20107;-59
2022/02/27 01:30:11;;;;;;;;;;;;;;;0.46;100.00;100918.05;1753180;82;20111;-59
2022/02/27 01:32:40;;;;;;;;;;;;;;;0.41;100.00;100919.07;1720334;82;20110;-58
2022/02/27 01:35:07;;;;;;;;;;;;;;;0.35;100.00;100918.45;1752777;82;20138;-58
2022/02/27 01:37:35;;;;;;;;;;;;;;;0.32;100.00;100920.95;1750275;80;20102;-59
2022/02/27 01:40:02;;;;;;;;;;;;;;;0.28;100.00;100914.31;1745027;82;20110;-59
2022/02/27 01:42:31;;;;;;;;;;;;;;;0.23;100.00;100909.97;1752881;80;20110;-60
2022/02/27 01:44:57;;;;;;;;;;;;;;;0.16;100.00;100911.69;1753121;82;20433;-59
2022/02/27 01:47:23;;;;;;;;;;;;;;;0.11;100.00;100912.70;1749118;80;20147;-59
2022/02/27 01:49:51;;;;;;;;;;;;;;;0.04;100.00;100910.40;1752174;82;20174;-60
2022/02/27 01:52:17;;;;;;;;;;;;;;;0.02;100.00;100904.40;1752832;80;20178;-59
2022/02/27 01:54:43;;;;;;;;;;;;;;;-0.03;100.00;100909.43;1752856;82;20169;-59
2022/02/27 01:57:10;;;;;;;;;;;;;;;-0.05;100.00;100910.12;1748923;82;20135;-58
2022/02/27 01:59:37;;;;;;;;;;;;;;;-0.11;100.00;100918.33;1743915;82;20111;-59
2022/02/27 02:02:04;;;;;;;;;;;;;;;-0.17;100.00;100911.00;1751155;82;20126;-59
2022/02/27 02:04:32;;;;;;;;;;;;;;;-0.20;100.00;100906.50;1715791;80;20127;-59
2022/02/27 02:06:58;;;;;;;;;;;;;;;-0.28;100.00;100908.70;1671638;85;20135;-59
2022/02/27 02:09:25;;;;;;;;;;;;;;;-0.34;100.00;100911.24;1699896;84;20177;-59
2022/02/27 02:11:53;;;;;;;;;;;;;;;-0.39;100.00;100906.93;1699913;84;20121;-59
2022/02/27 02:14:19;;;;;;;;;;;;;;;-0.47;100.00;100906.95;1699886;84;20761;-59
2022/02/27 02:16:50;;;;;;;;;;;;;;;-0.54;100.00;100906.31;1696830;84;20136;-58
2022/02/27 02:19:18;;;;;;;;;;;;;;;-0.60;100.00;100902.95;1699297;83;20117;-58
2022/02/27 02:21:47;;;;;;;;;;;;;;;-0.63;100.00;100908.66;1694472;84;20113;-59
2022/02/27 02:24:16;;;;;;;;;;;;;;;-0.66;100.00;100909.00;1700381;84;20156;-59
2022/02/27 02:26:43;;;;;;;;;;;;;;;-0.67;100.00;100912.67;1696021;84;20113;-59
2022/02/27 02:29:12;;;;;;;;;;;;;;;-0.70;100.00;100915.69;1699513;84;20396;-59
2022/02/27 02:31:39;;;;;;;;;;;;;;;-0.73;100.00;100914.70;1698702;84;20125;-58
2022/02/27 02:34:06;;;;;;;;;;;;;;;-0.75;100.00;100917.22;1680626;84;20097;-59
2022/02/27 02:36:32;;;;;;;;;;;;;;;-0.79;100.00;100910.54;1700183;84;20108;-59
2022/02/27 02:38:59;;;;;;;;;;;;;;;-0.77;100.00;100917.38;1692437;84;20132;-59
2022/02/27 02:41:25;;;;;;;;;;;;;;;-0.79;100.00;100918.06;1700345;84;20099;-58
2022/02/27 02:43:52;;;;;;;;;;;;;;;-0.79;100.00;100926.58;1699964;83;20546;-58
2022/02/27 02:46:18;;;;;;;;;;;;;;;-0.82;100.00;100931.77;1678480;84;20173;-58
2022/02/27 02:48:44;;;;;;;;;;;;;;;-0.86;100.00;100921.08;1673198;85;20426;-58
2022/02/27 02:51:12;;;;;;;;;;;;;;;-0.93;100.00;100924.09;1697787;84;20154;-58
2022/02/27 02:53:39;;;;;;;;;;;;;;;-0.94;100.00;100933.61;1695942;84;20109;-58
2022/02/27 02:56:06;;;;;;;;;;;;;;;-0.95;100.00;100931.43;1699339;84;20138;-58
2022/02/27 02:58:33;;;;;;;;;;;;;;;-0.94;100.00;100929.09;1699744;83;20101;-58
2022/02/27 03:01:00;;;;;;;;;;;;;;;-0.90;100.00;100930.44;1700065;84;20107;-58
2022/02/27 03:03:26;;;;;;;;;;;;;;;-0.85;100.00;100936.62;1701073;83;20114;-59
2022/02/27 03:05:52;;;;;;;;;;;;;;;-0.86;100.00;100937.62;1703646;84;20165;-59
2022/02/27 03:08:18;;;;;;;;;;;;;;;-0.89;100.00;100936.62;1694736;83;20447;-58
2022/02/27 03:10:45;;;;;;;;;;;;;;;-0.91;100.00;100936.78;1702812;84;20445;-59
2022/02/27 03:13:12;;;;;;;;;;;;;;;-0.93;100.00;100940.13;1673082;84;20152;-58
2022/02/27 03:15:39;;;;;;;;;;;;;;;-0.95;100.00;100942.63;1666343;85;20124;-58
2022/02/27 03:18:05;;;;;;;;;;;;;;;-0.92;100.00;100938.30;1683505;83;20123;-59
2022/02/27 03:20:31;;;;;;;;;;;;;;;-0.90;100.00;100950.98;1691580;85;20182;-59
2022/02/27 03:22:58;;;;;;;;;;;;;;;-0.89;100.00;100948.16;1691395;83;20452;-58
2022/02/27 03:25:24;;;;;;;;;;;;;;;-0.87;100.00;100952.81;1691768;85;20478;-59
2022/02/27 03:27:50;;;;;;;;;;;;;;;-0.87;100.00;100951.48;1677088;83;20139;-59
2022/02/27 03:30:16;;;;;;;;;;;;;;;-0.83;100.00;100963.52;1689132;85;20167;-59
2022/02/27 03:32:46;;;;;;;;;;;;;;;-0.85;100.00;100958.82;1671812;85;20111;-58
2022/02/27 03:35:11;;;;;;;;;;;;;;;-0.84;100.00;100953.81;1691728;85;20115;-58
2022/02/27 03:37:37;;;;;;;;;;;;;;;-0.73;100.00;100963.33;1691522;83;20155;-59
2022/02/27 03:40:05;;;;;;;;;;;;;;;-0.67;100.00;100972.00;1691600;85;20319;-59
2022/02/27 03:42:31;;;;;;;;;;;;;;;-0.70;100.00;100950.45;1687118;83;20140;-57
2022/02/27 03:44:58;;;;;;;;;;;;;;;-0.59;100.00;100972.00;1690492;85;20333;-57
2022/02/27 03:47:24;;;;;;;;;;;;;;;-0.54;100.00;100969.16;1688182;83;20460;-57
2022/02/27 03:49:51;;;;;;;;;;;;;;;-0.50;100.00;100975.02;1691455;85;20165;-57
2022/02/27 03:52:17;;;;;;;;;;;;;;;-0.46;100.00;100973.64;1691160;83;20150;-57
2022/02/27 03:54:43;;;;;;;;;;;;;;;-0.42;100.00;100978.98;1691677;85;20166;-58
2022/02/27 03:57:10;;;;;;;;;;;;;;;-0.42;100.00;100982.99;1689262;85;20188;-58
2022/02/27 03:59:36;;;;;;;;;;;;;;;-0.37;100.00;100983.83;1690260;85;20464;-58
2022/02/27 04:02:02;;;;;;;;;;;;;;;-0.37;100.00;100982.49;1702476;84;20133;-57
2022/02/27 04:04:29;;;;;;;;;;;;;;;-0.32;100.00;100986.31;1677268;84;20128;-57
2022/02/27 04:06:55;;;;;;;;;;;;;;;-0.29;100.00;100990.02;1696888;84;20100;-58
2022/02/27 04:09:21;;;;;;;;;;;;;;;-0.24;100.00;100992.15;1710082;82;20111;-58
2022/02/27 04:11:48;;;;;;;;;;;;;;;-0.21;100.00;100997.16;1676566;86;20143;-57
2022/02/27 04:14:14;;;;;;;;;;;;;;;-0.21;100.00;100993.98;1677188;84;20143;-58
2022/02/27 04:16:40;;;;;;;;;;;;;;;-0.18;100.00;100990.15;1696970;84;20134;-58
2022/02/27 04:19:07;;;;;;;;;;;;;;;-0.13;100.00;101001.99;1696858;83;20111;-58
2022/02/27 04:21:34;;;;;;;;;;;;;;;-0.08;100.00;100994.30;1696883;84;20118;-58
2022/02/27 04:24:01;;;;;;;;;;;;;;;-0.06;100.00;100999.45;1696830;83;20147;-58
2022/02/27 04:26:28;;;;;;;;;;;;;;;-0.02;100.00;101004.30;1711658;84;20136;-58
2022/02/27 04:28:54;;;;;;;;;;;;;;;0.00;100.00;101002.28;1708963;82;20110;-59
2022/02/27 04:31:21;;;;;;;;;;;;;;;-0.01;100.00;101009.16;1676922;86;20124;-58
2022/02/27 04:33:47;;;;;;;;;;;;;;;0.04;100.00;101014.81;1709722;82;20191;-57
2022/02/27 04:36:13;;;;;;;;;;;;;;;0.04;100.00;101009.98;1697287;85;20157;-59
2022/02/27 04:38:39;;;;;;;;;;;;;;;0.08;100.00;101013.47;1696563;83;20126;-58
2022/02/27 04:41:06;;;;;;;;;;;;;;;0.10;100.00;101015.48;1697389;85;20453;-59
2022/02/27 04:43:32;;;;;;;;;;;;;;;0.10;100.00;101011.97;1697034;83;20456;-58
2022/02/27 04:45:58;;;;;;;;;;;;;;;0.14;100.00;101010.62;1696785;84;20170;-58
2022/02/27 04:48:25;;;;;;;;;;;;;;;0.15;100.00;101006.41;1696664;83;20154;-57
2022/02/27 04:50:51;;;;;;;;;;;;;;;0.18;100.00;101013.28;1696200;84;20150;-59
2022/02/27 04:53:17;;;;;;;;;;;;;;;0.18;100.00;101014.62;1696396;83;20119;-58
2022/02/27 04:55:44;;;;;;;;;;;;;;;0.20;100.00;101009.41;1696687;84;20142;-57
2022/02/27 04:58:12;;;;;;;;;;;;;;;0.14;100.00;101000.74;1696485;83;20171;-58
2022/02/27 05:00:38;;;;;;;;;;;;;;;0.26;100.00;101017.24;1696945;85;20500;-58
2022/02/27 05:03:04;;;;;;;;;;;;;;;0.26;100.00;101021.27;1696652;83;20135;-59
2022/02/27 05:05:31;;;;;;;;;;;;;;;0.29;100.00;101023.09;1696407;84;20104;-58
2022/02/27 05:07:57;;;;;;;;;;;;;;;0.32;100.00;101020.05;1696804;83;20170;-59
2022/02/27 05:10:24;;;;;;;;;;;;;;;0.35;100.00;101020.23;1692999;85;20206;-59
2022/02/27 05:12:51;;;;;;;;;;;;;;;0.36;100.00;101016.52;1687696;83;20476;-59
2022/02/27 05:15:17;;;;;;;;;;;;;;;0.38;100.00;101020.72;1691806;85;20154;-59
2022/02/27 05:17:43;;;;;;;;;;;;;;;0.40;100.00;101020.03;1696136;83;20304;-57
2022/02/27 05:20:11;;;;;;;;;;;;;;;0.42;100.00;101025.22;1694245;85;20135;-59
2022/02/27 05:22:45;;;;;;;;;;;;;;;0.44;100.00;101022.69;1680001;83;20122;-59
2022/02/27 05:25:11;;;;;;;;;;;;;;;0.44;100.00;101023.19;1695956;85;20445;-58
2022/02/27 05:27:38;;;;;;;;;;;;;;;0.50;100.00;101017.13;1696070;83;20413;-58
2022/02/27 05:30:05;;;;;;;;;;;;;;;0.50;100.00;101017.95;1696350;85;20142;-59
2022/02/27 05:32:32;;;;;;;;;;;;;;;0.52;100.00;101019.14;1691744;84;20146;-59
2022/02/27 05:34:58;;;;;;;;;;;;;;;0.57;100.00;101017.28;1696300;85;20123;-58
2022/02/27 05:37:24;;;;;;;;;;;;;;;0.58;100.00;101010.39;1696249;83;20481;-58
2022/02/27 05:39:51;;;;;;;;;;;;;;;0.53;100.00;100998.05;1696711;84;20135;-58
2022/02/27 05:42:17;;;;;;;;;;;;;;;0.60;100.00;101015.08;1694963;85;20111;-58
2022/02/27 05:44:43;;;;;;;;;;;;;;;0.67;100.00;101017.89;1696355;85;20154;-59
2022/02/27 05:47:10;;;;;;;;;;;;;;;0.67;100.00;101021.91;1695772;85;20445;-58
2022/02/27 05:49:36;;;;;;;;;;;;;;;0.68;100.00;101012.84;1696329;85;20468;-60
2022/02/27 05:52:03;;;;;;;;;;;;;;;0.72;100.00;101012.81;1696140;84;20154;-59
2022/02/27 05:54:29;;;;;;;;;;;;;;;0.77;100.00;101019.33;1695794;83;20138;-59
2022/02/27 05:56:56;;;;;;;;;;;;;;;0.81;100.00;101019.81;1696263;85;20486;-59
2022/02/27 05:59:22;;;;;;;;;;;;;;;0.88;100.00;101017.58;1695706;83;20472;-59
2022/02/27 06:01:48;;;;;;;;;;;;;;;0.92;100.00;101020.74;1667206;85;20136;-59
2022/02/27 06:04:15;;;;;;;;;;;;;;;1.02;100.00;101021.84;1695328;83;20099;-59
2022/02/27 06:06:42;;;;;;;;;;;;;;;1.05;100.00;101024.16;1684793;85;20162;-60
2022/02/27 06:09:08;;;;;;;;;;;;;;;1.13;100.00;101019.58;1688219;83;20143;-60
2022/02/27 06:11:35;;;;;;;;;;;;;;;1.15;100.00;101023.41;1663877;85;20743;-59
2022/02/27 06:14:02;;;;;;;;;;;;;;;1.17;100.00;101023.55;1693306;85;20107;-59
2022/02/27 06:16:30;;;;;;;;;;;;;;;1.20;100.00;101023.22;1695942;85;20461;-59
2022/02/27 06:18:56;;;;;;;;;;;;;;;1.24;100.00;101019.13;1691434;83;20410;-59
2022/02/27 06:21:22;;;;;;;;;;;;;;;1.31;100.00;101020.08;1696227;85;20414;-59
2022/02/27 06:23:48;;;;;;;;;;;;;;;1.35;100.00;101017.36;1695728;83;20135;-59
2022/02/27 06:26:15;;;;;;;;;;;;;;;1.40;100.00;101020.85;1696173;85;20111;-59
2022/02/27 06:28:42;;;;;;;;;;;;;;;1.43;100.00;101025.34;1695687;83;20398;-58
2022/02/27 06:31:08;;;;;;;;;;;;;;;1.49;100.00;101021.93;1695384;85;20127;-58
2022/02/27 06:33:34;;;;;;;;;;;;;;;1.57;100.00;101023.71;1695149;83;20111;-57
2022/02/27 06:36:01;;;;;;;;;;;;;;;1.63;100.00;101026.19;1695028;85;20130;-58
2022/02/27 06:38:27;;;;;;;;;;;;;;;1.69;100.00;101028.13;1696245;83;20154;-58
2022/02/27 06:40:53;;;;;;;;;;;;;;;1.81;100.00;101031.52;1689562;84;20471;-59
2022/02/27 06:43:19;;;;;;;;;;;;;;;1.92;100.00;101027.55;1691597;83;20136;-58
2022/02/27 06:45:45;;;;;;;;;;;;;;;2.06;100.00;101034.77;1696110;85;20142;-58
2022/02/27 06:48:12;;;;;;;;;;;;;;;2.14;100.00;101032.51;1696058;83;20115;-58
2022/02/27 06:50:38;;;;;;;;;;;;;;;2.22;100.00;101032.42;1696038;85;20122;-59
2022/02/27 06:53:05;;;;;;;;;;;;;;;2.30;100.00;101043.89;1694240;84;20139;-59
2022/02/27 06:55:31;;;;;;;;;;;;;;;2.29;100.00;101032.00;1695022;85;20126;-57
2022/02/27 06:57:57;;;;;;;;;;;;;;;2.44;100.00;101042.23;1689252;83;20123;-60
2022/02/27 07:00:23;;;;;;;;;;;;;;;2.48;100.00;101040.30;1695515;84;20139;-59
2022/02/27 07:02:50;;;;;;;;;;;;;;;2.66;100.00;101043.94;1693278;83;20135;-59
2022/02/27 07:05:16;;;;;;;;;;;;;;;2.91;100.00;101048.45;1688209;84;20453;-60
2022/02/27 07:07:42;;;;;;;;;;;;;;;2.94;100.00;101056.17;1695037;83;20708;-59
2022/02/27 07:10:10;;;;;;;;;;;;;;;2.96;100.00;101050.08;1662961;85;20418;-58
2022/02/27 07:12:37;;;;;;;;;;;;;;;3.13;100.00;101044.77;1642574;85;20133;-58
2022/02/27 07:15:05;;;;;;;;;;;;;;;3.24;100.00;101044.77;1666219;86;20132;-59
2022/02/27 07:17:31;;;;;;;;;;;;;;;3.31;100.00;101047.02;1666126;85;20137;-59
2022/02/27 07:19:57;;;;;;;;;;;;;;;3.37;100.00;101039.00;1651753;86;20176;-59
2022/02/27 07:22:23;;;;;;;;;;;;;;;3.29;100.00;101045.05;1662266;85;20139;-59
2022/02/27 07:24:50;;;;;;;;;;;;;;;3.41;100.00;101050.20;1653642;86;20151;-60
2022/02/27 07:27:16;;;;;;;;;;;;;;;3.57;100.00;101049.12;1661201;85;20528;-60
2022/02/27 07:29:42;;;;;;;;;;;;;;;3.65;100.00;101047.64;1672617;85;20437;-60
2022/02/27 07:32:11;;;;;;;;;;;;;;;3.80;100.00;101052.39;1673141;85;20499;-61
2022/02/27 07:34:38;;;;;;;;;;;;;;;3.87;100.00;101043.84;1667198;85;20438;-60
2022/02/27 07:37:06;;;;;;;;;;;;;;;3.92;100.00;101043.59;1659003;84;20138;-60
2022/02/27 07:39:50;;;;;;;;;;;;;;;3.96;100.00;101042.69;1663658;85;20155;-59
2022/02/27 07:42:17;;;;;;;;;;;;;;;4.06;100.00;101040.47;1664180;85;20441;-60
2022/02/27 07:44:44;;;;;;;;;;;;;;;4.12;100.00;101046.41;1665160;85;20103;-59
2022/02/27 07:47:10;;;;;;;;;;;;;;;4.19;100.00;101048.62;1665155;86;20171;-60
2022/02/27 07:49:36;;;;;;;;;;;;;;;4.22;100.00;101042.83;1664766;85;20111;-65
2022/02/27 07:52:03;;;;;;;;;;;;;;;4.19;100.00;101038.36;1670908;85;20423;-63
2022/02/27 07:54:30;;;;;;;;;;;;;;;4.26;100.00;101034.67;1666265;84;20099;-60
2022/02/27 07:56:56;;;;;;;;;;;;;;;4.63;100.00;101040.14;1670408;85;20143;-60
2022/02/27 07:59:22;;;;;;;;;;;;;;;5.03;100.00;101037.03;1666990;85;20111;-58
2022/02/27 08:01:49;;;;;;;;;;;;;;;5.20;100.00;101032.10;1657067;85;20173;-58
2022/02/27 08:04:17;;;;;;;;;;;;;;;5.22;100.00;101034.06;1659666;85;20103;-59
2022/02/27 08:06:44;;;;;;;;;;;;;;;5.21;100.00;101038.62;1667869;85;20132;-59
2022/02/27 08:09:11;;;;;;;;;;;;;;;5.25;100.00;101035.00;1696219;83;20102;-58
2022/02/27 08:11:38;;;;;;;;;;;;;;;5.22;98.56;101030.02;1677998;84;20394;-59
2022/02/27 08:14:04;;;;;;;;;;;;;;;5.30;94.97;101031.17;1677586;84;20176;-60
2022/02/27 08:18:16;;;;;;;12.65;7.75;;;;;;;6.19;100.00;101025.64;1773566;79;22850;-58
2022/02/27 08:20:44;;;;;;;9.10;3.70;;;;;;;6.86;91.18;101025.69;1686877;83;21034;-59
2022/02/27 08:23:11;;;;;;;7.08;3.33;;;;;;;7.56;77.55;101015.11;1696592;83;21077;-59
2022/02/27 08:25:37;;;;;;;6.53;3.05;;;;;;;7.92;69.06;101016.56;1682332;84;21006;-59
2022/02/27 08:28:04;;;;;;;5.58;2.10;;;;;;;7.93;58.15;101014.68;1664160;84;21632;-59
2022/02/27 08:30:31;;;;;;;4.75;1.60;;;;;;;7.48;54.66;101011.30;1685604;83;21483;-59
2022/02/27 08:32:57;;;;;;;3.25;1.27;;;;;;;6.95;54.32;101021.16;1687259;84;21101;-61
2022/02/27 08:35:24;;;;;;;3.02;1.37;;;;;;;6.55;53.72;101021.06;1691304;84;21011;-62
2022/02/27 08:37:50;;;;;;;;;;;;;;;6.15;53.96;101016.81;1695898;83;21090;-61
2022/02/27 08:40:17;;;;;;;5.47;1.98;;;;;;;5.81;54.59;101018.70;1689912;84;20159;-61
2022/02/27 08:42:45;;;;;;;3.40;1.50;;;;;;;5.67;57.07;101017.05;1690508;84;21055;-60
2022/02/27 08:45:12;;;;;;;4.12;1.80;;;;;;;5.77;56.13;101014.78;1693796;84;21830;-59
2022/02/27 08:47:39;;;;;;;5.35;1.90;;;;;;;5.61;54.67;101015.19;1691244;84;21038;-61
2022/02/27 08:50:05;;;;;;;;;;;;;;;5.42;54.57;101010.09;1698072;84;21011;-61
2022/02/27 08:52:34;;;;;;;5.55;2.58;;;;;;;5.33;55.22;101005.95;1668901;83;20457;-60
2022/02/27 08:55:02;;;;;;;6.78;3.02;;;;;;;5.49;56.69;101003.36;1691124;84;20983;-61
2022/02/27 08:57:29;;;;;;;7.53;5.08;;;;;;;5.70;56.02;101000.45;1663789;83;21027;-61
2022/02/27 08:59:56;;;;;;;13.25;7.28;;;;;;;5.80;55.11;100998.14;1691039;84;20987;-61
2022/02/27 09:05:55;;;;;;;8.55;5.40;;;;;;;6.23;53.79;100996.31;1786371;79;22973;-58
2022/02/27 09:08:23;;;;;;;8.25;5.22;;;;;;;6.36;53.72;100998.95;1750839;80;21055;-58
2022/02/27 09:10:49;;;;;;;9.05;5.70;;;;;;;6.60;53.26;100997.39;1727026;82;21002;-57
2022/02/27 09:13:16;;;;;;;7.42;4.60;;;;;;;6.55;50.50;101001.28;1736672;80;21034;-58
2022/02/27 09:15:44;;;;;;;7.47;4.50;;;;;;;6.17;49.70;100997.14;1740353;82;21043;-57
2022/02/27 09:18:11;;;;;;;8.08;4.42;;;;;;;5.81;50.47;100996.27;1737538;80;21037;-58
2022/02/27 09:20:38;;;;;;;7.90;4.60;;;;;;;5.83;52.22;100994.17;1733650;82;21040;-57
2022/02/27 09:23:04;;;;;;;8.78;5.03;;;;;;;6.08;51.69;100997.91;1740147;80;21097;-59
2022/02/27 09:25:31;;;;;;;11.15;6.80;;;;;;;6.56;51.86;100993.45;1740028;82;21867;-59
2022/02/27 09:27:58;;;;;;;12.37;6.65;;;;;;;7.10;50.96;100992.42;1741608;81;21103;-59
2022/02/27 09:30:25;;;;;;;14.25;9.38;;;;;;;7.51;49.40;100989.19;1713288;82;21038;-59
2022/02/27 09:32:51;;;;;;;14.58;10.28;;;;;;;7.79;47.69;100990.94;1725260;81;21611;-60
2022/02/27 09:35:24;;;;;;;17.20;10.72;;;;;;;7.45;46.64;100989.55;1721309;82;21329;-59
2022/02/27 09:37:47;;;;;;;13.88;9.45;;;;;;;7.10;47.28;100989.72;1728118;82;21078;-62
2022/02/27 09:40:14;;;;;;;;;;;;;;;6.79;47.38;100988.36;1709935;82;21045;-61
2022/02/27 09:55:14;;;;;;;11.05;7.28;;;;;;;5.66;48.78;100990.25;1742759;82;21049;-60
2022/02/27 09:57:46;;;;;;;10.30;6.87;;;;;;;5.66;49.95;100987.55;1740232;82;21042;-62
2022/02/27 10:00:15;;;;;;;10.48;5.87;;;;;;;5.75;49.10;100990.34;1738949;82;21029;-61
2022/02/27 10:03:10;;;;;;;12.35;7.85;;;;;;;5.81;48.00;100988.97;1742969;80;21562;-60
2022/02/27 10:05:47;;;;;;;12.60;8.00;;;;;;;6.37;49.92;100981.70;1663694;84;21053;-60
2022/02/27 10:08:16;;;;;;;9.30;5.72;;;;;;;7.33;46.75;100975.05;1674087;85;21036;-59
2022/02/27 10:10:59;;;;;;;10.75;7.75;;;;;;;7.37;44.10;100972.73;1676252;85;21612;-58
2022/02/27 10:13:44;;;;;;;8.98;6.30;;;;;;;6.98;44.02;100981.98;1675893;85;21059;-60
2022/02/27 10:16:18;;;;;;;10.10;6.05;;;;;;;6.57;43.78;100968.06;1697248;84;20998;-62
2022/02/27 10:18:53;;;;;;;12.80;7.58;;;;;;;6.38;44.71;100973.34;1695297;84;21072;-61
2022/02/27 10:21:37;;;;;;;20.23;13.40;;;;;;;6.44;45.67;100971.67;1662039;86;21002;-59
2022/02/27 10:24:16;;;;;;;15.78;13.15;;;;;;;6.56;45.27;100964.53;1666876;85;21660;-61
2022/02/27 10:26:49;;;;;;;14.13;11.05;;;;;;;6.47;45.38;100963.97;1696733;83;21574;-59
2022/02/27 10:29:24;;;;;;;13.45;7.22;;;;;;;6.42;45.43;100959.70;1678007;84;21151;-59
2022/02/27 10:31:58;;;;;;;16.23;10.48;;;;;;;6.39;46.28;100958.79;1670162;85;21031;-59
2022/02/27 10:34:36;;;;;;;18.75;12.70;;;;;;;6.34;45.57;100961.84;1670894;84;21629;-57
2022/02/27 10:37:18;;;;;;;17.30;9.88;;;;;;;6.16;46.03;100951.72;1674229;85;21708;-60
2022/02/27 10:39:49;;;;;;;17.20;11.88;;;;;;;6.07;46.71;100965.66;1664649;85;21019;-59
2022/02/27 10:42:31;;;;;;;20.12;14.93;;;;;;;6.10;47.05;100963.88;1672847;85;21004;-59
2022/02/27 10:45:03;;;;;;;18.55;12.63;;;;;;;6.09;46.92;100967.65;1672588;85;21038;-58
2022/02/27 10:47:39;;;;;;;16.75;10.75;;;;;;;5.96;47.28;100959.88;1666678;84;21044;-60
2022/02/27 10:50:18;;;;;;;15.60;10.72;;;;;;;5.78;47.49;100961.54;1650720;85;21069;-61
2022/02/27 10:52:46;;;;;;;16.67;10.03;;;;;;;5.60;47.96;100964.09;1674810;84;21055;-60
2022/02/27 10:55:15;;;;;;;12.73;8.50;;;;;;;5.57;49.24;100960.43;1671656;85;21137;-60
2022/02/27 10:57:50;;;;;;;10.78;7.00;;;;;;;5.64;49.60;100958.55;1673028;84;21078;-60
2022/02/27 11:00:34;;;;;;;17.80;10.97;;;;;;;5.76;49.61;100954.18;1663490;84;21570;-59
2022/02/27 11:03:08;;;;;;;19.17;12.35;;;;;;;5.88;49.31;100951.19;1661163;85;21473;-58
2022/02/27 11:05:44;;;;;;;18.07;11.90;;;;;;;5.95;49.34;100955.50;1682295;84;21115;-57
2022/02/27 11:08:13;;;;;;;21.15;13.35;;;;;;;5.92;48.83;100950.52;1710452;82;20987;-58
2022/02/27 11:10:42;;;;;;;21.00;12.80;;;;;;;5.85;48.42;100949.68;1696335;83;21027;-59
2022/02/27 11:13:15;;;;;;;19.07;12.85;;;;;;;5.78;48.68;100949.37;1727783;81;21027;-59
2022/02/27 11:15:44;;;;;;;12.13;7.80;;;;;;;5.80;48.15;100945.45;1703616;82;21095;-58
2022/02/27 11:18:15;;;;;;;14.03;7.33;;;;;;;5.82;47.93;100941.16;1710813;82;21059;-57
2022/02/27 11:20:45;;;;;;;10.08;6.10;;;;;;;5.87;47.64;100942.24;1678513;82;21503;-58
2022/02/27 11:23:14;;;;;;;9.95;5.17;;;;;;;6.00;47.15;100938.14;1712413;82;21553;-60
2022/02/27 11:25:44;;;;;;;8.28;4.97;;;;;;;6.07;46.47;100939.98;1710775;82;21589;-59
2022/02/27 11:28:14;;;;;;;6.83;4.22;;;;;;;6.04;46.01;100933.14;1656456;85;21108;-59
2022/02/27 11:30:51;;;;;;;7.72;4.30;;;;;;;5.97;46.25;100928.27;1700046;82;21439;-59
2022/02/27 11:33:27;;;;;;;6.43;3.87;;;;;;;5.88;46.11;100933.62;1652211;83;21024;-59
2022/02/27 11:36:00;;;;;;;6.72;4.00;;;;;;;5.87;46.35;100929.25;1673194;83;22111;-59
2022/02/27 11:38:41;;;;;;;6.37;3.65;;;;;;;5.97;46.70;100927.76;1709831;82;21007;-60
2022/02/27 11:41:17;;;;;;;6.15;2.98;;;;;;;6.14;46.68;100929.97;1713115;82;21035;-59
2022/02/27 11:43:57;;;;;;;8.63;4.30;;;;;;;6.34;46.91;100919.38;1712111;83;20999;-60
2022/02/27 11:46:38;;;;;;;10.10;6.70;;;;;;;6.51;45.32;100919.73;1708046;82;21573;-56
2022/02/27 11:49:20;;;;;;;8.08;4.62;;;;;;;6.65;45.10;100922.66;1708150;83;21965;-57
2022/02/27 11:51:55;;;;;;;9.23;5.70;;;;;;;6.72;44.41;100926.16;1711938;82;20998;-57
2022/02/27 11:54:26;;;;;;;14.25;8.40;;;;;;;6.67;43.81;100914.31;1699176;82;21016;-57
2022/02/27 11:57:03;;;;;;;10.95;6.97;;;;;;;6.48;44.17;100923.67;1686682;83;21014;-56
2022/02/27 12:00:02;;;;;;;;;;;;;;;6.33;44.70;100929.91;1717609;83;21004;-56
2022/02/27 12:02:38;;;;;;;10.05;5.78;;;;;;;6.17;44.92;100921.43;1708647;82;20103;-57
2022/02/27 12:05:15;;;;;;;13.90;8.10;;;;;;;5.82;45.29;100923.09;1714729;82;20991;-60
2022/02/27 12:08:05;;;;;;;13.48;7.83;;;;;;;5.66;45.90;100923.55;1711440;83;21546;-58
2022/02/27 12:10:38;;;;;;;11.00;6.75;;;;;;;5.51;46.25;100921.59;1695676;82;21595;-58
2022/02/27 12:13:25;;;;;;;12.55;6.03;;;;;;;5.37;46.76;100921.30;1701773;83;21058;-60
2022/02/27 12:16:12;;;;;;;8.87;5.17;;;;;;;5.29;46.96;100921.50;1710973;82;21429;-57
2022/02/27 12:18:57;;;;;;;9.75;5.80;;;;;;;5.22;47.35;100912.58;1710752;82;21677;-57
2022/02/27 12:21:40;;;;;;;10.48;5.35;;;;;;;5.17;48.04;100906.99;1716295;82;21621;-57
2022/02/27 12:24:13;;;;;;;8.43;4.05;;;;;;;5.19;47.94;100910.30;1673060;84;21612;-58
2022/02/27 12:26:44;;;;;;;7.55;4.30;;;;;;;5.22;47.34;100912.06;1726417;82;20987;-58
2022/02/27 12:29:34;;;;;;;8.68;4.65;;;;;;;5.32;47.11;100907.58;1677852;83;21029;-57
2022/02/27 12:32:12;;;;;;;8.23;3.62;;;;;;;5.44;47.50;100889.72;1722620;82;20940;-57
2022/02/27 12:34:41;;;;;;;8.68;3.75;;;;;;;5.77;47.25;100908.05;1725244;82;20934;-57
2022/02/27 12:37:08;;;;;;;12.30;7.35;;;;;;;5.92;44.91;100903.75;1703743;83;20952;-57